sensor_id;sensor_type;location;lat;lon;timestamp;P1;durP1;ratioP1;P2;durP2;ratioP2
59685;SDS011;45554;51.096;16.976;2022-11-20T00:01:28;46.50;;;22.40;;
59685;SDS011;45554;51.096;16.976;2022-11-20T00:03:59;42.20;;;21.60;;
59685;SDS011;45554;51.096;16.976;2022-11-20T00:06:28;44.00;;;20.80;;
59685;SDS011;45554;51.096;16.976;2022-11-20T00:08:56;40.90;;;19.80;;
59685;SDS011;45554;51.096;16.976;2022-11-20T00:11:26;43.10;;;19.70;;
59685;SDS011;45554;51.096;16.976;2022-11-20T00:13:55;38.10;;;19.30;;
59685;SDS011;45554;51.096;16.976;2022-11-20T00:16:25;44.50;;;21.60;;
59685;SDS011;45554;51.096;16.976;2022-11-20T00:18:55;45.60;;;21.30;;
59685;SDS011;45554;51.096;16.976;2022-11-20T00:21:23;41.60;;;20.30;;
59685;SDS011;45554;51.096;16.976;2022-11-20T00:23:56;41.90;;;21.30;;
59685;SDS011;45554;51.096;16.976;2022-11-20T00:26:26;44.20;;;21.90;;
59685;SDS011;45554;51.096;16.976;2022-11-20T00:28:56;44.60;;;21.90;;
59685;SDS011;45554;51.096;16.976;2022-11-20T00:31:26;46.70;;;21.90;;
59685;SDS011;45554;51.096;16.976;2022-11-20T00:33:54;40.80;;;19.40;;
59685;SDS011;45554;51.096;16.976;2022-11-20T00:36:24;37.50;;;17.60;;
59685;SDS011;45554;51.096;16.976;2022-11-20T00:38:56;39.30;;;18.60;;
59685;SDS011;45554;51.096;16.976;2022-11-20T00:41:26;45.50;;;21.50;;
59685;SDS011;45554;51.096;16.976;2022-11-20T00:43:55;45.90;;;21.80;;
59685;SDS011;45554;51.096;16.976;2022-11-20T00:46:25;47.00;;;22.10;;
59685;SDS011;45554;51.096;16.976;2022-11-20T00:48:54;47.70;;;22.00;;
59685;SDS011;45554;51.096;16.976;2022-11-20T00:51:24;42.00;;;20.40;;
59685;SDS011;45554;51.096;16.976;2022-11-20T00:53:54;42.10;;;20.50;;
59685;SDS011;45554;51.096;16.976;2022-11-20T00:56:24;40.20;;;19.30;;
59685;SDS011;45554;51.096;16.976;2022-11-20T00:58:52;41.10;;;19.50;;
59685;SDS011;45554;51.096;16.976;2022-11-20T01:04:33;42.40;;;19.80;;
59685;SDS011;45554;51.096;16.976;2022-11-20T01:07:01;43.50;;;19.80;;
59685;SDS011;45554;51.096;16.976;2022-11-20T01:09:29;45.00;;;20.00;;
59685;SDS011;45554;51.096;16.976;2022-11-20T01:11:57;42.00;;;20.00;;
59685;SDS011;45554;51.096;16.976;2022-11-20T01:14:26;45.30;;;20.30;;
59685;SDS011;45554;51.096;16.976;2022-11-20T01:16:55;41.80;;;20.50;;
59685;SDS011;45554;51.096;16.976;2022-11-20T01:19:24;47.70;;;22.30;;
59685;SDS011;45554;51.096;16.976;2022-11-20T01:21:53;46.40;;;22.50;;
59685;SDS011;45554;51.096;16.976;2022-11-20T01:24:22;45.60;;;22.50;;
59685;SDS011;45554;51.096;16.976;2022-11-20T01:26:51;47.80;;;21.90;;
59685;SDS011;45554;51.096;16.976;2022-11-20T01:29:23;42.90;;;21.20;;
59685;SDS011;45554;51.096;16.976;2022-11-20T01:31:52;42.00;;;20.20;;
59685;SDS011;45554;51.096;16.976;2022-11-20T01:34:21;39.90;;;19.40;;
59685;SDS011;45554;51.096;16.976;2022-11-20T01:36:51;40.90;;;20.20;;
59685;SDS011;45554;51.096;16.976;2022-11-20T01:41:50;37.50;;;18.80;;
59685;SDS011;45554;51.096;16.976;2022-11-20T01:44:48;39.50;;;20.20;;
59685;SDS011;45554;51.096;16.976;2022-11-20T01:47:23;40.80;;;19.80;;
59685;SDS011;45554;51.096;16.976;2022-11-20T01:50:14;46.40;;;21.00;;
59685;SDS011;45554;51.096;16.976;2022-11-20T01:52:47;45.50;;;20.00;;
59685;SDS011;45554;51.096;16.976;2022-11-20T01:55:19;45.20;;;21.80;;
59685;SDS011;45554;51.096;16.976;2022-11-20T01:57:53;46.00;;;21.80;;
59685;SDS011;45554;51.096;16.976;2022-11-20T02:00:22;46.40;;;22.40;;
59685;SDS011;45554;51.096;16.976;2022-11-20T02:02:54;46.70;;;22.00;;
59685;SDS011;45554;51.096;16.976;2022-11-20T02:08:09;46.70;;;22.10;;
59685;SDS011;45554;51.096;16.976;2022-11-20T02:10:37;47.60;;;21.50;;
59685;SDS011;45554;51.096;16.976;2022-11-20T02:13:05;41.20;;;19.20;;
59685;SDS011;45554;51.096;16.976;2022-11-20T02:15:51;42.00;;;20.10;;
59685;SDS011;45554;51.096;16.976;2022-11-20T02:18:20;42.60;;;21.10;;
59685;SDS011;45554;51.096;16.976;2022-11-20T02:20:50;41.80;;;21.00;;
59685;SDS011;45554;51.096;16.976;2022-11-20T02:26:07;46.30;;;21.70;;
59685;SDS011;45554;51.096;16.976;2022-11-20T02:28:38;44.30;;;20.30;;
59685;SDS011;45554;51.096;16.976;2022-11-20T02:31:06;44.00;;;21.00;;
59685;SDS011;45554;51.096;16.976;2022-11-20T02:33:35;37.70;;;19.10;;
59685;SDS011;45554;51.096;16.976;2022-11-20T02:36:03;38.30;;;18.00;;
59685;SDS011;45554;51.096;16.976;2022-11-20T02:38:30;38.80;;;18.50;;
59685;SDS011;45554;51.096;16.976;2022-11-20T02:40:59;33.70;;;16.60;;
59685;SDS011;45554;51.096;16.976;2022-11-20T02:43:27;38.70;;;17.60;;
59685;SDS011;45554;51.096;16.976;2022-11-20T02:45:54;33.40;;;16.10;;
59685;SDS011;45554;51.096;16.976;2022-11-20T02:48:22;39.50;;;18.40;;
59685;SDS011;45554;51.096;16.976;2022-11-20T02:50:51;39.10;;;18.90;;
59685;SDS011;45554;51.096;16.976;2022-11-20T02:53:19;38.70;;;19.30;;
59685;SDS011;45554;51.096;16.976;2022-11-20T02:55:47;37.60;;;17.40;;
59685;SDS011;45554;51.096;16.976;2022-11-20T02:58:15;40.20;;;18.50;;
59685;SDS011;45554;51.096;16.976;2022-11-20T03:00:43;41.90;;;18.30;;
59685;SDS011;45554;51.096;16.976;2022-11-20T03:03:10;40.30;;;17.60;;
59685;SDS011;45554;51.096;16.976;2022-11-20T03:05:39;38.60;;;18.70;;
59685;SDS011;45554;51.096;16.976;2022-11-20T03:08:06;36.90;;;17.40;;
59685;SDS011;45554;51.096;16.976;2022-11-20T03:10:34;35.50;;;15.30;;
59685;SDS011;45554;51.096;16.976;2022-11-20T03:13:02;32.60;;;16.50;;
59685;SDS011;45554;51.096;16.976;2022-11-20T03:15:30;33.30;;;15.40;;
59685;SDS011;45554;51.096;16.976;2022-11-20T03:17:57;37.90;;;18.20;;
59685;SDS011;45554;51.096;16.976;2022-11-20T03:20:25;36.20;;;17.80;;
59685;SDS011;45554;51.096;16.976;2022-11-20T03:22:54;37.30;;;17.10;;
59685;SDS011;45554;51.096;16.976;2022-11-20T03:25:22;38.30;;;17.20;;
59685;SDS011;45554;51.096;16.976;2022-11-20T03:27:51;39.20;;;17.90;;
59685;SDS011;45554;51.096;16.976;2022-11-20T03:30:18;36.90;;;17.90;;
59685;SDS011;45554;51.096;16.976;2022-11-20T03:32:47;33.60;;;16.70;;
59685;SDS011;45554;51.096;16.976;2022-11-20T03:35:15;35.80;;;17.80;;
59685;SDS011;45554;51.096;16.976;2022-11-20T03:37:42;31.50;;;16.10;;
59685;SDS011;45554;51.096;16.976;2022-11-20T03:40:10;33.50;;;16.20;;
59685;SDS011;45554;51.096;16.976;2022-11-20T03:42:39;32.90;;;15.60;;
59685;SDS011;45554;51.096;16.976;2022-11-20T03:45:16;32.50;;;15.40;;
59685;SDS011;45554;51.096;16.976;2022-11-20T03:47:45;39.20;;;16.80;;
59685;SDS011;45554;51.096;16.976;2022-11-20T03:50:13;38.30;;;17.40;;
59685;SDS011;45554;51.096;16.976;2022-11-20T03:52:41;39.50;;;17.90;;
59685;SDS011;45554;51.096;16.976;2022-11-20T03:55:09;34.90;;;18.00;;
59685;SDS011;45554;51.096;16.976;2022-11-20T03:57:37;34.00;;;16.20;;
59685;SDS011;45554;51.096;16.976;2022-11-20T04:00:05;33.00;;;17.10;;
59685;SDS011;45554;51.096;16.976;2022-11-20T04:02:34;34.20;;;17.10;;
59685;SDS011;45554;51.096;16.976;2022-11-20T04:05:01;32.90;;;15.20;;
59685;SDS011;45554;51.096;16.976;2022-11-20T04:07:29;31.80;;;16.40;;
59685;SDS011;45554;51.096;16.976;2022-11-20T04:09:57;33.10;;;15.50;;
59685;SDS011;45554;51.096;16.976;2022-11-20T04:12:25;35.30;;;16.00;;
59685;SDS011;45554;51.096;16.976;2022-11-20T04:14:53;34.40;;;15.50;;
59685;SDS011;45554;51.096;16.976;2022-11-20T04:17:21;35.00;;;17.50;;
59685;SDS011;45554;51.096;16.976;2022-11-20T04:19:48;32.20;;;15.60;;
59685;SDS011;45554;51.096;16.976;2022-11-20T04:22:16;30.40;;;14.50;;
59685;SDS011;45554;51.096;16.976;2022-11-20T04:24:44;31.20;;;14.50;;
59685;SDS011;45554;51.096;16.976;2022-11-20T04:27:12;28.60;;;14.50;;
59685;SDS011;45554;51.096;16.976;2022-11-20T04:29:40;28.10;;;13.90;;
59685;SDS011;45554;51.096;16.976;2022-11-20T04:32:08;29.90;;;14.20;;
59685;SDS011;45554;51.096;16.976;2022-11-20T04:34:36;28.60;;;14.80;;
59685;SDS011;45554;51.096;16.976;2022-11-20T04:37:03;31.80;;;14.90;;
59685;SDS011;45554;51.096;16.976;2022-11-20T04:39:31;29.50;;;13.90;;
59685;SDS011;45554;51.096;16.976;2022-11-20T04:41:59;32.10;;;14.90;;
59685;SDS011;45554;51.096;16.976;2022-11-20T04:44:46;31.60;;;14.90;;
59685;SDS011;45554;51.096;16.976;2022-11-20T04:47:14;35.40;;;15.60;;
59685;SDS011;45554;51.096;16.976;2022-11-20T04:49:42;35.90;;;14.70;;
59685;SDS011;45554;51.096;16.976;2022-11-20T04:52:10;37.00;;;15.80;;
59685;SDS011;45554;51.096;16.976;2022-11-20T04:54:38;27.40;;;13.30;;
59685;SDS011;45554;51.096;16.976;2022-11-20T04:57:06;31.40;;;13.70;;
59685;SDS011;45554;51.096;16.976;2022-11-20T04:59:40;34.00;;;16.50;;
59685;SDS011;45554;51.096;16.976;2022-11-20T05:02:09;34.10;;;16.80;;
59685;SDS011;45554;51.096;16.976;2022-11-20T05:04:38;35.10;;;16.50;;
59685;SDS011;45554;51.096;16.976;2022-11-20T05:07:05;30.50;;;15.00;;
59685;SDS011;45554;51.096;16.976;2022-11-20T05:09:33;38.40;;;14.30;;
59685;SDS011;45554;51.096;16.976;2022-11-20T05:12:01;29.30;;;13.90;;
59685;SDS011;45554;51.096;16.976;2022-11-20T05:14:29;31.70;;;13.80;;
59685;SDS011;45554;51.096;16.976;2022-11-20T05:16:58;30.00;;;13.70;;
59685;SDS011;45554;51.096;16.976;2022-11-20T05:19:26;30.70;;;14.70;;
59685;SDS011;45554;51.096;16.976;2022-11-20T05:21:53;33.50;;;14.90;;
59685;SDS011;45554;51.096;16.976;2022-11-20T05:24:21;33.20;;;15.30;;
59685;SDS011;45554;51.096;16.976;2022-11-20T05:26:49;33.50;;;15.40;;
59685;SDS011;45554;51.096;16.976;2022-11-20T05:29:17;30.30;;;14.40;;
59685;SDS011;45554;51.096;16.976;2022-11-20T05:31:45;31.60;;;13.50;;
59685;SDS011;45554;51.096;16.976;2022-11-20T05:34:13;32.70;;;14.30;;
59685;SDS011;45554;51.096;16.976;2022-11-20T05:36:41;32.00;;;14.60;;
59685;SDS011;45554;51.096;16.976;2022-11-20T05:39:09;32.70;;;16.00;;
59685;SDS011;45554;51.096;16.976;2022-11-20T05:41:37;35.30;;;15.40;;
59685;SDS011;45554;51.096;16.976;2022-11-20T05:44:05;36.90;;;14.90;;
59685;SDS011;45554;51.096;16.976;2022-11-20T05:46:32;35.40;;;18.30;;
59685;SDS011;45554;51.096;16.976;2022-11-20T05:49:00;36.00;;;18.30;;
59685;SDS011;45554;51.096;16.976;2022-11-20T05:51:28;34.90;;;17.90;;
59685;SDS011;45554;51.096;16.976;2022-11-20T05:53:56;41.10;;;17.80;;
59685;SDS011;45554;51.096;16.976;2022-11-20T05:56:25;39.00;;;17.70;;
59685;SDS011;45554;51.096;16.976;2022-11-20T05:58:53;40.10;;;18.20;;
59685;SDS011;45554;51.096;16.976;2022-11-20T06:01:22;37.90;;;17.90;;
59685;SDS011;45554;51.096;16.976;2022-11-20T06:03:52;41.20;;;19.00;;
59685;SDS011;45554;51.096;16.976;2022-11-20T06:06:21;42.20;;;19.50;;
59685;SDS011;45554;51.096;16.976;2022-11-20T06:08:49;44.20;;;19.80;;
59685;SDS011;45554;51.096;16.976;2022-11-20T06:11:17;39.90;;;20.00;;
59685;SDS011;45554;51.096;16.976;2022-11-20T06:13:46;39.10;;;18.60;;
59685;SDS011;45554;51.096;16.976;2022-11-20T06:16:15;44.30;;;20.30;;
59685;SDS011;45554;51.096;16.976;2022-11-20T06:18:45;38.80;;;18.40;;
59685;SDS011;45554;51.096;16.976;2022-11-20T06:21:18;43.50;;;20.10;;
59685;SDS011;45554;51.096;16.976;2022-11-20T06:23:48;43.00;;;19.00;;
59685;SDS011;45554;51.096;16.976;2022-11-20T06:26:18;44.30;;;19.90;;
59685;SDS011;45554;51.096;16.976;2022-11-20T06:28:47;47.80;;;22.00;;
59685;SDS011;45554;51.096;16.976;2022-11-20T06:31:17;45.90;;;21.40;;
59685;SDS011;45554;51.096;16.976;2022-11-20T06:33:46;43.80;;;20.90;;
59685;SDS011;45554;51.096;16.976;2022-11-20T06:36:16;43.40;;;21.10;;
59685;SDS011;45554;51.096;16.976;2022-11-20T06:38:46;46.00;;;21.00;;
59685;SDS011;45554;51.096;16.976;2022-11-20T06:41:18;49.70;;;19.10;;
59685;SDS011;45554;51.096;16.976;2022-11-20T06:43:48;54.00;;;23.30;;
59685;SDS011;45554;51.096;16.976;2022-11-20T06:46:16;44.50;;;21.20;;
59685;SDS011;45554;51.096;16.976;2022-11-20T06:48:46;48.90;;;21.20;;
59685;SDS011;45554;51.096;16.976;2022-11-20T06:51:14;43.20;;;21.50;;
59685;SDS011;45554;51.096;16.976;2022-11-20T06:53:42;43.10;;;19.30;;
59685;SDS011;45554;51.096;16.976;2022-11-20T06:56:10;41.10;;;17.50;;
59685;SDS011;45554;51.096;16.976;2022-11-20T06:58:38;47.70;;;21.30;;
59685;SDS011;45554;51.096;16.976;2022-11-20T07:01:07;42.40;;;19.30;;
59685;SDS011;45554;51.096;16.976;2022-11-20T07:03:37;42.70;;;21.80;;
59685;SDS011;45554;51.096;16.976;2022-11-20T07:06:05;40.20;;;20.40;;
59685;SDS011;45554;51.096;16.976;2022-11-20T07:08:34;43.00;;;20.90;;
59685;SDS011;45554;51.096;16.976;2022-11-20T07:11:03;41.50;;;20.80;;
59685;SDS011;45554;51.096;16.976;2022-11-20T07:13:33;47.70;;;22.40;;
59685;SDS011;45554;51.096;16.976;2022-11-20T07:16:02;46.60;;;22.00;;
59685;SDS011;45554;51.096;16.976;2022-11-20T07:18:32;41.30;;;21.30;;
59685;SDS011;45554;51.096;16.976;2022-11-20T07:21:04;46.70;;;20.70;;
59685;SDS011;45554;51.096;16.976;2022-11-20T07:23:34;43.90;;;19.00;;
59685;SDS011;45554;51.096;16.976;2022-11-20T07:26:03;47.50;;;21.00;;
59685;SDS011;45554;51.096;16.976;2022-11-20T07:28:35;47.70;;;22.40;;
59685;SDS011;45554;51.096;16.976;2022-11-20T07:31:04;45.20;;;23.70;;
59685;SDS011;45554;51.096;16.976;2022-11-20T07:33:34;46.50;;;22.80;;
59685;SDS011;45554;51.096;16.976;2022-11-20T07:36:02;45.40;;;21.40;;
59685;SDS011;45554;51.096;16.976;2022-11-20T07:38:30;49.30;;;22.80;;
59685;SDS011;45554;51.096;16.976;2022-11-20T07:40:58;51.10;;;23.20;;
59685;SDS011;45554;51.096;16.976;2022-11-20T07:43:29;53.10;;;23.50;;
59685;SDS011;45554;51.096;16.976;2022-11-20T07:45:57;51.70;;;23.80;;
59685;SDS011;45554;51.096;16.976;2022-11-20T07:48:26;44.10;;;21.10;;
59685;SDS011;45554;51.096;16.976;2022-11-20T07:50:57;45.40;;;21.20;;
59685;SDS011;45554;51.096;16.976;2022-11-20T07:53:25;46.20;;;22.20;;
59685;SDS011;45554;51.096;16.976;2022-11-20T07:55:53;46.30;;;22.30;;
59685;SDS011;45554;51.096;16.976;2022-11-20T07:58:21;50.00;;;22.60;;
59685;SDS011;45554;51.096;16.976;2022-11-20T08:00:49;43.90;;;20.60;;
59685;SDS011;45554;51.096;16.976;2022-11-20T08:03:17;46.90;;;22.00;;
59685;SDS011;45554;51.096;16.976;2022-11-20T08:05:51;46.40;;;22.30;;
59685;SDS011;45554;51.096;16.976;2022-11-20T08:08:19;43.40;;;21.40;;
59685;SDS011;45554;51.096;16.976;2022-11-20T08:10:47;41.40;;;21.00;;
59685;SDS011;45554;51.096;16.976;2022-11-20T08:13:15;39.50;;;20.40;;
59685;SDS011;45554;51.096;16.976;2022-11-20T08:16:01;44.40;;;20.90;;
59685;SDS011;45554;51.096;16.976;2022-11-20T08:18:29;41.70;;;20.60;;
59685;SDS011;45554;51.096;16.976;2022-11-20T08:21:03;35.00;;;17.70;;
59685;SDS011;45554;51.096;16.976;2022-11-20T08:23:31;37.00;;;19.20;;
59685;SDS011;45554;51.096;16.976;2022-11-20T08:25:59;34.30;;;18.80;;
59685;SDS011;45554;51.096;16.976;2022-11-20T08:28:27;39.00;;;19.80;;
59685;SDS011;45554;51.096;16.976;2022-11-20T08:30:58;35.70;;;17.90;;
59685;SDS011;45554;51.096;16.976;2022-11-20T08:33:27;36.00;;;19.00;;
59685;SDS011;45554;51.096;16.976;2022-11-20T08:36:00;35.10;;;17.90;;
59685;SDS011;45554;51.096;16.976;2022-11-20T08:38:28;36.00;;;19.00;;
59685;SDS011;45554;51.096;16.976;2022-11-20T08:40:58;34.40;;;16.40;;
59685;SDS011;45554;51.096;16.976;2022-11-20T08:43:45;34.50;;;17.30;;
59685;SDS011;45554;51.096;16.976;2022-11-20T08:46:13;33.80;;;17.70;;
59685;SDS011;45554;51.096;16.976;2022-11-20T08:48:41;34.00;;;19.00;;
59685;SDS011;45554;51.096;16.976;2022-11-20T08:51:10;37.90;;;19.80;;
59685;SDS011;45554;51.096;16.976;2022-11-20T08:53:40;36.80;;;19.90;;
59685;SDS011;45554;51.096;16.976;2022-11-20T08:56:08;37.70;;;20.00;;
59685;SDS011;45554;51.096;16.976;2022-11-20T08:58:37;36.30;;;19.60;;
59685;SDS011;45554;51.096;16.976;2022-11-20T09:01:26;38.00;;;19.60;;
59685;SDS011;45554;51.096;16.976;2022-11-20T09:03:56;37.20;;;19.20;;
59685;SDS011;45554;51.096;16.976;2022-11-20T09:06:25;37.20;;;19.10;;
59685;SDS011;45554;51.096;16.976;2022-11-20T09:08:53;36.30;;;18.80;;
59685;SDS011;45554;51.096;16.976;2022-11-20T09:11:22;35.10;;;18.50;;
59685;SDS011;45554;51.096;16.976;2022-11-20T09:13:50;36.30;;;18.30;;
59685;SDS011;45554;51.096;16.976;2022-11-20T09:16:18;33.50;;;17.30;;
59685;SDS011;45554;51.096;16.976;2022-11-20T09:18:46;31.60;;;16.20;;
59685;SDS011;45554;51.096;16.976;2022-11-20T09:21:28;36.80;;;18.60;;
59685;SDS011;45554;51.096;16.976;2022-11-20T09:23:56;35.70;;;17.80;;
59685;SDS011;45554;51.096;16.976;2022-11-20T09:26:24;33.70;;;18.00;;
59685;SDS011;45554;51.096;16.976;2022-11-20T09:28:52;32.30;;;16.90;;
59685;SDS011;45554;51.096;16.976;2022-11-20T09:31:24;29.30;;;16.40;;
59685;SDS011;45554;51.096;16.976;2022-11-20T09:33:53;29.70;;;16.10;;
59685;SDS011;45554;51.096;16.976;2022-11-20T09:36:21;31.80;;;16.90;;
59685;SDS011;45554;51.096;16.976;2022-11-20T09:38:49;32.60;;;16.10;;
59685;SDS011;45554;51.096;16.976;2022-11-20T09:41:28;30.30;;;15.10;;
59685;SDS011;45554;51.096;16.976;2022-11-20T09:47:16;29.80;;;14.80;;
59685;SDS011;45554;51.096;16.976;2022-11-20T09:49:59;27.00;;;14.20;;
59685;SDS011;45554;51.096;16.976;2022-11-20T09:55:30;27.70;;;16.00;;
59685;SDS011;45554;51.096;16.976;2022-11-20T09:57:58;27.70;;;15.30;;
59685;SDS011;45554;51.096;16.976;2022-11-20T10:00:27;28.10;;;15.50;;
59685;SDS011;45554;51.096;16.976;2022-11-20T10:03:10;29.20;;;15.60;;
59685;SDS011;45554;51.096;16.976;2022-11-20T10:05:44;32.90;;;16.00;;
59685;SDS011;45554;51.096;16.976;2022-11-20T10:08:16;29.80;;;16.40;;
59685;SDS011;45554;51.096;16.976;2022-11-20T10:10:45;28.20;;;15.60;;
59685;SDS011;45554;51.096;16.976;2022-11-20T10:13:23;28.00;;;15.80;;
59685;SDS011;45554;51.096;16.976;2022-11-20T10:16:17;31.70;;;16.80;;
59685;SDS011;45554;51.096;16.976;2022-11-20T10:19:11;29.70;;;16.60;;
59685;SDS011;45554;51.096;16.976;2022-11-20T10:21:58;29.30;;;16.40;;
59685;SDS011;45554;51.096;16.976;2022-11-20T10:30:17;26.50;;;14.20;;
59685;SDS011;45554;51.096;16.976;2022-11-20T10:32:52;25.60;;;14.60;;
59685;SDS011;45554;51.096;16.976;2022-11-20T10:38:05;28.00;;;14.70;;
59685;SDS011;45554;51.096;16.976;2022-11-20T10:43:15;35.00;;;17.40;;
59685;SDS011;45554;51.096;16.976;2022-11-20T10:46:05;27.70;;;15.30;;
59685;SDS011;45554;51.096;16.976;2022-11-20T10:48:40;28.20;;;16.10;;
59685;SDS011;45554;51.096;16.976;2022-11-20T10:54:26;27.70;;;15.20;;
59685;SDS011;45554;51.096;16.976;2022-11-20T10:57:19;29.80;;;14.60;;
59685;SDS011;45554;51.096;16.976;2022-11-20T11:00:11;26.20;;;13.70;;
59685;SDS011;45554;51.096;16.976;2022-11-20T11:02:44;28.60;;;14.40;;
59685;SDS011;45554;51.096;16.976;2022-11-20T11:05:36;26.90;;;13.50;;
59685;SDS011;45554;51.096;16.976;2022-11-20T11:08:18;26.10;;;13.50;;
59685;SDS011;45554;51.096;16.976;2022-11-20T11:13:21;23.80;;;14.00;;
59685;SDS011;45554;51.096;16.976;2022-11-20T11:15:54;25.80;;;14.20;;
59685;SDS011;45554;51.096;16.976;2022-11-20T11:18:24;22.00;;;11.90;;
59685;SDS011;45554;51.096;16.976;2022-11-20T11:20:52;22.30;;;12.20;;
59685;SDS011;45554;51.096;16.976;2022-11-20T11:23:26;22.00;;;12.40;;
59685;SDS011;45554;51.096;16.976;2022-11-20T11:25:59;20.60;;;11.80;;
59685;SDS011;45554;51.096;16.976;2022-11-20T11:28:28;19.30;;;11.00;;
59685;SDS011;45554;51.096;16.976;2022-11-20T11:30:56;21.00;;;11.10;;
59685;SDS011;45554;51.096;16.976;2022-11-20T11:33:25;16.90;;;9.20;;
59685;SDS011;45554;51.096;16.976;2022-11-20T11:35:55;21.10;;;10.30;;
59685;SDS011;45554;51.096;16.976;2022-11-20T11:38:30;20.80;;;11.40;;
59685;SDS011;45554;51.096;16.976;2022-11-20T11:41:02;22.70;;;11.60;;
59685;SDS011;45554;51.096;16.976;2022-11-20T11:46:30;18.90;;;10.00;;
59685;SDS011;45554;51.096;16.976;2022-11-20T11:49:00;25.20;;;12.90;;
59685;SDS011;45554;51.096;16.976;2022-11-20T12:00:20;22.40;;;12.10;;
59685;SDS011;45554;51.096;16.976;2022-11-20T12:03:08;22.60;;;13.10;;
59685;SDS011;45554;51.096;16.976;2022-11-20T12:05:47;21.20;;;11.60;;
59685;SDS011;45554;51.096;16.976;2022-11-20T12:08:23;19.50;;;10.80;;
59685;SDS011;45554;51.096;16.976;2022-11-20T12:13:48;21.80;;;12.80;;
59685;SDS011;45554;51.096;16.976;2022-11-20T12:16:21;22.80;;;12.60;;
59685;SDS011;45554;51.096;16.976;2022-11-20T12:18:51;22.70;;;13.70;;
59685;SDS011;45554;51.096;16.976;2022-11-20T12:27:26;21.90;;;13.20;;
59685;SDS011;45554;51.096;16.976;2022-11-20T12:30:12;19.10;;;12.00;;
59685;SDS011;45554;51.096;16.976;2022-11-20T12:32:45;21.50;;;12.50;;
59685;SDS011;45554;51.096;16.976;2022-11-20T12:35:44;18.30;;;11.30;;
59685;SDS011;45554;51.096;16.976;2022-11-20T12:56:21;21.10;;;12.20;;
59685;SDS011;45554;51.096;16.976;2022-11-20T13:02:27;23.50;;;13.20;;
59685;SDS011;45554;51.096;16.976;2022-11-20T13:07:40;21.70;;;12.50;;
59685;SDS011;45554;51.096;16.976;2022-11-20T13:10:15;20.80;;;12.00;;
59685;SDS011;45554;51.096;16.976;2022-11-20T13:12:51;20.50;;;11.40;;
59685;SDS011;45554;51.096;16.976;2022-11-20T13:18:22;20.30;;;11.60;;
59685;SDS011;45554;51.096;16.976;2022-11-20T13:20:51;19.70;;;12.00;;
59685;SDS011;45554;51.096;16.976;2022-11-20T13:23:23;20.20;;;11.80;;
59685;SDS011;45554;51.096;16.976;2022-11-20T13:28:48;20.00;;;11.70;;
59685;SDS011;45554;51.096;16.976;2022-11-20T13:31:39;17.80;;;11.50;;
59685;SDS011;45554;51.096;16.976;2022-11-20T13:34:22;20.40;;;11.90;;
59685;SDS011;45554;51.096;16.976;2022-11-20T13:36:54;18.50;;;11.70;;
59685;SDS011;45554;51.096;16.976;2022-11-20T13:39:27;18.90;;;11.20;;
59685;SDS011;45554;51.096;16.976;2022-11-20T13:42:01;18.80;;;10.80;;
59685;SDS011;45554;51.096;16.976;2022-11-20T13:45:00;18.60;;;11.10;;
59685;SDS011;45554;51.096;16.976;2022-11-20T13:47:29;19.90;;;12.00;;
59685;SDS011;45554;51.096;16.976;2022-11-20T13:49:57;17.50;;;10.60;;
59685;SDS011;45554;51.096;16.976;2022-11-20T14:00:26;18.20;;;10.60;;
59685;SDS011;45554;51.096;16.976;2022-11-20T14:05:54;17.90;;;9.70;;
59685;SDS011;45554;51.096;16.976;2022-11-20T14:08:47;19.10;;;11.30;;
59685;SDS011;45554;51.096;16.976;2022-11-20T14:11:19;23.40;;;11.50;;
59685;SDS011;45554;51.096;16.976;2022-11-20T14:13:52;19.90;;;10.80;;
59685;SDS011;45554;51.096;16.976;2022-11-20T14:16:31;18.70;;;10.20;;
59685;SDS011;45554;51.096;16.976;2022-11-20T14:21:48;16.50;;;9.20;;
59685;SDS011;45554;51.096;16.976;2022-11-20T14:24:20;17.10;;;9.80;;
59685;SDS011;45554;51.096;16.976;2022-11-20T14:26:50;20.60;;;9.90;;
59685;SDS011;45554;51.096;16.976;2022-11-20T14:29:21;24.30;;;11.80;;
59685;SDS011;45554;51.096;16.976;2022-11-20T14:31:54;21.10;;;11.00;;
59685;SDS011;45554;51.096;16.976;2022-11-20T14:34:25;22.00;;;11.60;;
59685;SDS011;45554;51.096;16.976;2022-11-20T14:36:59;20.40;;;10.70;;
59685;SDS011;45554;51.096;16.976;2022-11-20T14:42:03;23.50;;;11.80;;
59685;SDS011;45554;51.096;16.976;2022-11-20T14:44:41;22.70;;;11.60;;
59685;SDS011;45554;51.096;16.976;2022-11-20T14:47:11;24.50;;;11.80;;
59685;SDS011;45554;51.096;16.976;2022-11-20T14:49:40;24.80;;;11.30;;
59685;SDS011;45554;51.096;16.976;2022-11-20T14:52:16;22.50;;;12.60;;
59685;SDS011;45554;51.096;16.976;2022-11-20T14:57:32;22.80;;;11.00;;
59685;SDS011;45554;51.096;16.976;2022-11-20T15:02:51;22.20;;;12.10;;
59685;SDS011;45554;51.096;16.976;2022-11-20T15:05:20;26.90;;;13.10;;
59685;SDS011;45554;51.096;16.976;2022-11-20T15:07:52;27.90;;;13.70;;
59685;SDS011;45554;51.096;16.976;2022-11-20T15:10:33;27.50;;;13.50;;
59685;SDS011;45554;51.096;16.976;2022-11-20T15:13:05;25.20;;;11.70;;
59685;SDS011;45554;51.096;16.976;2022-11-20T15:18:14;29.60;;;15.30;;
59685;SDS011;45554;51.096;16.976;2022-11-20T15:20:45;27.70;;;13.30;;
59685;SDS011;45554;51.096;16.976;2022-11-20T15:23:17;26.30;;;12.70;;
59685;SDS011;45554;51.096;16.976;2022-11-20T15:25:47;25.70;;;14.00;;
59685;SDS011;45554;51.096;16.976;2022-11-20T15:28:16;25.60;;;12.90;;
59685;SDS011;45554;51.096;16.976;2022-11-20T15:30:48;29.00;;;14.90;;
59685;SDS011;45554;51.096;16.976;2022-11-20T15:33:16;39.30;;;17.10;;
59685;SDS011;45554;51.096;16.976;2022-11-20T15:35:45;43.20;;;19.00;;
59685;SDS011;45554;51.096;16.976;2022-11-20T15:38:13;43.00;;;21.70;;
59685;SDS011;45554;51.096;16.976;2022-11-20T15:40:40;38.20;;;19.50;;
59685;SDS011;45554;51.096;16.976;2022-11-20T15:43:09;41.80;;;21.80;;
59685;SDS011;45554;51.096;16.976;2022-11-20T15:45:47;36.40;;;19.90;;
59685;SDS011;45554;51.096;16.976;2022-11-20T15:48:23;46.30;;;24.80;;
59685;SDS011;45554;51.096;16.976;2022-11-20T15:51:23;43.90;;;23.20;;
59685;SDS011;45554;51.096;16.976;2022-11-20T15:56:23;37.20;;;19.50;;
59685;SDS011;45554;51.096;16.976;2022-11-20T15:58:51;36.60;;;18.50;;
59685;SDS011;45554;51.096;16.976;2022-11-20T16:01:20;33.20;;;16.90;;
59685;SDS011;45554;51.096;16.976;2022-11-20T16:03:49;34.30;;;17.20;;
59685;SDS011;45554;51.096;16.976;2022-11-20T16:06:17;31.70;;;17.00;;
59685;SDS011;45554;51.096;16.976;2022-11-20T16:08:45;31.50;;;15.50;;
59685;SDS011;45554;51.096;16.976;2022-11-20T16:11:14;33.30;;;15.40;;
59685;SDS011;45554;51.096;16.976;2022-11-20T16:13:43;31.20;;;15.50;;
59685;SDS011;45554;51.096;16.976;2022-11-20T16:16:31;29.40;;;15.00;;
59685;SDS011;45554;51.096;16.976;2022-11-20T16:19:00;32.20;;;15.60;;
59685;SDS011;45554;51.096;16.976;2022-11-20T16:21:28;29.90;;;15.40;;
59685;SDS011;45554;51.096;16.976;2022-11-20T16:24:00;34.60;;;16.00;;